Time;durP1;ratioP1;P1;durP2;ratioP2;P2;SDS_P1;SDS_P2;PMS_P1;PMS_P2;Temp;Humidity;BMP_temperature;BMP_pressure;BME280_temperature;BME280_humidity;BME280_pressure;Samples;Min_cycle;Max_cycle;Signal;HPM_P1;HPM_P2
2023/03/28 00:01:12;;;;;;;6.35;1.42;;;2.70;99.90;;;;;;5053602;28;20288;-59
2023/03/28 00:03:39;;;;;;;8.90;2.13;;;2.70;99.90;;;;;;5052909;28;20711;-59
2023/03/28 00:06:09;;;;;;;8.55;2.00;;;2.70;99.90;;;;;;5053674;28;20220;-58
2023/03/28 00:08:39;;;;;;;5.78;1.90;;;2.70;99.90;;;;;;5053049;28;20202;-59
2023/03/28 00:11:08;;;;;;;4.80;1.70;;;2.80;99.90;;;;;;5053437;28;20231;-59
2023/03/28 00:13:36;;;;;;;5.05;1.92;;;2.80;99.90;;;;;;5053213;28;20255;-59
2023/03/28 00:16:06;;;;;;;14.48;2.00;;;2.80;99.90;;;;;;5052945;28;20221;-59
2023/03/28 00:18:36;;;;;;;10.80;2.15;;;2.80;99.90;;;;;;5053201;28;20204;-59
2023/03/28 00:21:06;;;;;;;4.60;1.90;;;2.70;99.90;;;;;;5052969;28;20640;-59
2023/03/28 00:23:34;;;;;;;11.18;1.70;;;2.70;99.90;;;;;;5053412;28;20225;-59
2023/03/28 00:26:07;;;;;;;7.72;2.20;;;2.70;99.90;;;;;;5053189;28;20198;-60
2023/03/28 00:28:35;;;;;;;4.18;2.13;;;2.70;99.90;;;;;;5057370;28;20192;-58
2023/03/28 00:31:06;;;;;;;4.05;2.08;;;2.60;99.90;;;;;;5057287;28;20251;-59
2023/03/28 00:33:33;;;;;;;10.63;2.22;;;2.60;99.90;;;;;;5057051;28;20237;-59
2023/03/28 00:35:59;;;;;;;5.30;2.67;;;2.60;99.90;;;;;;5067452;28;20223;-58
2023/03/28 00:38:27;;;;;;;14.40;2.97;;;2.50;99.90;;;;;;5057822;28;20679;-59
2023/03/28 00:40:56;;;;;;;3.35;1.23;;;2.50;99.90;;;;;;5056824;28;20292;-60
2023/03/28 00:43:42;;;;;;;4.47;2.05;;;2.50;99.90;;;;;;5057016;28;20313;-60
2023/03/28 00:46:15;;;;;;;3.35;1.63;;;2.50;99.90;;;;;;5056944;28;20273;-60
2023/03/28 00:48:49;;;;;;;5.95;2.10;;;2.40;99.90;;;;;;5057113;28;20225;-59
2023/03/28 00:51:19;;;;;;;3.55;1.90;;;2.40;99.90;;;;;;5056916;28;20221;-60
2023/03/28 00:53:47;;;;;;;6.40;2.33;;;2.30;99.90;;;;;;5056376;28;20212;-59
2023/03/28 00:56:18;;;;;;;10.73;2.65;;;2.30;99.90;;;;;;5057084;28;20217;-59
2023/03/28 00:58:47;;;;;;;7.15;1.90;;;2.20;99.90;;;;;;5056488;28;20205;-59
2023/03/28 01:01:15;;;;;;;9.70;1.85;;;2.20;99.90;;;;;;5056599;28;20205;-59
2023/03/28 01:03:45;;;;;;;9.75;1.55;;;2.20;99.90;;;;;;5056177;28;20837;-58
2023/03/28 01:06:15;;;;;;;4.50;2.10;;;2.20;99.90;;;;;;5056193;28;20251;-58
2023/03/28 01:08:45;;;;;;;4.50;1.85;;;2.20;99.90;;;;;;5056668;28;20203;-60
2023/03/28 01:11:13;;;;;;;9.43;2.10;;;2.20;99.90;;;;;;5056535;28;20202;-57
2023/03/28 01:13:44;;;;;;;5.40;1.83;;;2.30;99.90;;;;;;5055932;28;20253;-58
2023/03/28 01:16:14;;;;;;;5.50;1.48;;;2.30;99.90;;;;;;5056383;28;20206;-59
2023/03/28 01:18:42;;;;;;;6.03;1.88;;;2.30;99.90;;;;;;5057065;28;20285;-57
2023/03/28 01:21:59;;;;;;;5.03;1.42;;;2.30;99.90;;;;;;5056710;28;20212;-60
2023/03/28 01:24:58;;;;;;;5.35;1.85;;;2.30;99.90;;;;;;5057666;28;20186;-59
2023/03/28 01:27:31;;;;;;;13.23;1.60;;;2.20;99.90;;;;;;5056560;28;20182;-58
2023/03/28 01:30:32;;;;;;;2.53;1.52;;;2.20;99.90;;;;;;5056727;28;20593;-58
2023/03/28 01:33:53;;;;;;;6.70;1.52;;;2.20;99.90;;;;;;5056975;28;20225;-59
2023/03/28 01:37:04;;;;;;;3.47;2.05;;;2.20;99.90;;;;;;5058890;28;20210;-59
2023/03/28 01:39:45;;;;;;;3.72;1.95;;;2.20;99.90;;;;;;5042185;28;20208;-59
2023/03/28 01:42:19;;;;;;;6.75;1.63;;;2.10;99.90;;;;;;5056292;28;20225;-61
2023/03/28 01:44:52;;;;;;;2.15;1.15;;;2.10;99.90;;;;;;5056113;28;20259;-60
2023/03/28 01:47:25;;;;;;;7.85;2.33;;;2.10;99.90;;;;;;5056134;28;20650;-61
2023/03/28 01:50:01;;;;;;;4.03;1.70;;;2.10;99.90;;;;;;5056462;28;20186;-58
2023/03/28 01:52:35;;;;;;;9.90;2.35;;;2.00;99.90;;;;;;5056128;28;20244;-58
2023/03/28 01:55:08;;;;;;;11.18;1.90;;;2.00;99.90;;;;;;5056075;28;20194;-58
2023/03/28 01:57:41;;;;;;;10.45;2.67;;;2.00;99.90;;;;;;5055852;28;20209;-59
2023/03/28 02:00:14;;;;;;;5.80;2.05;;;1.90;99.90;;;;;;5055577;28;20186;-58
2023/03/28 02:02:49;;;;;;;5.38;1.80;;;1.90;99.90;;;;;;5055185;28;20229;-59
2023/03/28 02:05:19;;;;;;;8.93;2.33;;;1.90;99.90;;;;;;5055530;28;20207;-59
2023/03/28 02:07:50;;;;;;;7.35;1.65;;;1.90;99.90;;;;;;5055516;28;20605;-59
2023/03/28 02:10:21;;;;;;;6.35;1.88;;;1.90;99.90;;;;;;5055380;28;20194;-59
2023/03/28 02:12:51;;;;;;;2.47;1.65;;;1.90;99.90;;;;;;5058416;28;20226;-59
2023/03/28 02:15:23;;;;;;;7.47;2.33;;;1.90;99.90;;;;;;5056761;28;20277;-59
2023/03/28 02:17:55;;;;;;;4.45;1.98;;;2.00;99.90;;;;;;5054995;28;20206;-59
2023/03/28 02:20:25;;;;;;;3.00;1.33;;;2.00;99.90;;;;;;5055122;28;20273;-59
2023/03/28 02:22:58;;;;;;;7.82;1.95;;;2.00;99.90;;;;;;5055121;28;20222;-59
2023/03/28 02:25:25;;;;;;;7.90;2.10;;;1.90;99.90;;;;;;5055120;28;20186;-59
2023/03/28 02:27:55;;;;;;;5.97;2.10;;;1.90;99.90;;;;;;5055019;28;20207;-59
2023/03/28 02:30:23;;;;;;;5.55;2.03;;;1.90;99.90;;;;;;5054894;28;20189;-58
2023/03/28 02:32:50;;;;;;;2.30;1.90;;;1.90;99.90;;;;;;5054556;28;20233;-58
2023/03/28 02:35:21;;;;;;;2.65;1.30;;;1.80;99.90;;;;;;5054727;28;20631;-57
2023/03/28 02:38:00;;;;;;;7.07;2.60;;;1.80;99.90;;;;;;5054722;28;20295;-59
2023/03/28 02:40:40;;;;;;;6.45;1.50;;;1.80;99.90;;;;;;5055469;28;20185;-59
2023/03/28 02:43:35;;;;;;;9.00;1.80;;;1.70;99.90;;;;;;5054721;28;20221;-59
2023/03/28 02:46:17;;;;;;;9.32;2.80;;;1.70;99.90;;;;;;5054381;28;20644;-58
2023/03/28 02:49:12;;;;;;;6.65;2.20;;;1.70;99.90;;;;;;5054530;28;20506;-59
2023/03/28 02:51:45;;;;;;;11.13;2.03;;;1.70;99.90;;;;;;5053234;28;20209;-60
2023/03/28 02:54:25;;;;;;;8.57;2.88;;;1.70;99.90;;;;;;5054434;28;20190;-59
2023/03/28 02:57:02;;;;;;;6.57;1.90;;;1.80;99.90;;;;;;5054300;28;20209;-59
2023/03/28 02:59:35;;;;;;;6.10;2.58;;;1.80;99.90;;;;;;5054534;28;20651;-59
2023/03/28 03:02:03;;;;;;;2.72;1.67;;;1.80;99.90;;;;;;5054451;28;20279;-58
2023/03/28 03:04:29;;;;;;;7.95;2.67;;;1.90;99.90;;;;;;5054950;28;20196;-59
2023/03/28 03:06:59;;;;;;;5.80;2.80;;;1.90;99.90;;;;;;5054758;28;20197;-60
2023/03/28 03:09:29;;;;;;;10.60;1.23;;;1.90;99.90;;;;;;5054685;28;20190;-59
2023/03/28 03:11:55;;;;;;;5.85;1.80;;;1.90;99.90;;;;;;5054973;28;20222;-58
2023/03/28 03:14:22;;;;;;;4.00;1.90;;;1.90;99.90;;;;;;5055190;28;20699;-58
2023/03/28 03:16:50;;;;;;;10.57;2.15;;;1.90;99.90;;;;;;5056081;28;20248;-59
2023/03/28 03:19:17;;;;;;;4.68;1.65;;;1.90;99.90;;;;;;5056178;28;20308;-59
2023/03/28 03:21:44;;;;;;;5.78;2.20;;;2.00;99.90;;;;;;5057643;28;20309;-58
2023/03/28 03:24:11;;;;;;;2.35;1.20;;;2.00;99.90;;;;;;5055840;28;20205;-58
2023/03/28 03:26:39;;;;;;;8.15;2.08;;;2.10;99.90;;;;;;5055136;28;20277;-57
2023/03/28 03:29:06;;;;;;;8.65;2.22;;;2.10;99.90;;;;;;5054892;28;20570;-58
2023/03/28 03:31:33;;;;;;;5.20;1.50;;;2.10;99.90;;;;;;5054064;28;20255;-59
2023/03/28 03:34:00;;;;;;;5.60;1.73;;;2.10;99.90;;;;;;5053748;28;20213;-59
2023/03/28 03:36:29;;;;;;;5.80;2.40;;;2.10;99.90;;;;;;5053904;28;20292;-58
2023/03/28 03:38:56;;;;;;;3.03;1.25;;;2.00;99.90;;;;;;5054409;28;20208;-58
2023/03/28 03:41:22;;;;;;;7.60;2.95;;;2.00;99.90;;;;;;5053820;28;20251;-59
2023/03/28 03:43:51;;;;;;;11.77;2.60;;;2.00;99.90;;;;;;5054183;28;20205;-59
2023/03/28 03:46:18;;;;;;;3.33;1.80;;;1.90;99.90;;;;;;5053820;28;20202;-59
2023/03/28 03:48:44;;;;;;;7.00;1.90;;;1.90;99.90;;;;;;5056442;28;20204;-58
2023/03/28 03:51:11;;;;;;;7.43;2.00;;;1.80;99.90;;;;;;5055507;28;20205;-59
2023/03/28 03:53:38;;;;;;;7.15;1.40;;;1.80;99.90;;;;;;5053851;28;20229;-57
2023/03/28 03:56:06;;;;;;;11.50;2.17;;;1.80;99.90;;;;;;5053741;28;20211;-59
2023/03/28 03:58:33;;;;;;;2.45;1.23;;;1.70;99.90;;;;;;5053384;28;20230;-60
2023/03/28 04:01:02;;;;;;;9.45;2.30;;;1.70;99.90;;;;;;5054057;28;20205;-59
2023/03/28 04:03:28;;;;;;;3.65;1.65;;;1.70;99.90;;;;;;5053162;28;20272;-59
2023/03/28 04:05:56;;;;;;;9.80;2.50;;;1.60;99.90;;;;;;5053316;28;20201;-58
2023/03/28 04:11:29;;;;;;;6.32;1.90;;;1.50;99.90;;;;;;5091345;28;20545;-59
2023/03/28 04:13:55;;;;;;;10.93;2.75;;;1.50;99.90;;;;;;5090896;28;20208;-60
2023/03/28 04:16:22;;;;;;;6.07;2.50;;;1.50;99.90;;;;;;5090930;28;20203;-59
2023/03/28 04:18:51;;;;;;;5.25;2.40;;;1.50;99.90;;;;;;5090611;28;20666;-59
2023/03/28 04:21:24;;;;;;;8.10;2.28;;;1.50;99.90;;;;;;5090695;28;20637;-59
2023/03/28 04:23:51;;;;;;;8.70;1.60;;;1.50;99.90;;;;;;5090527;28;20188;-59
2023/03/28 04:26:24;;;;;;;7.07;2.42;;;1.40;99.90;;;;;;5091350;28;20204;-60
2023/03/28 04:28:53;;;;;;;9.15;2.55;;;1.40;99.90;;;;;;5090630;28;20280;-61
2023/03/28 04:31:21;;;;;;;7.20;2.97;;;1.40;99.90;;;;;;5090669;28;20228;-60
2023/03/28 04:33:48;;;;;;;14.00;2.17;;;1.40;99.90;;;;;;5090634;28;20208;-60
2023/03/28 04:36:17;;;;;;;7.28;1.98;;;1.30;99.90;;;;;;5090719;28;20207;-59
2023/03/28 04:38:45;;;;;;;8.45;2.13;;;1.30;99.90;;;;;;5090568;28;20204;-60
2023/03/28 04:41:15;;;;;;;12.70;2.92;;;1.30;99.90;;;;;;5090280;28;20666;-59
2023/03/28 04:43:43;;;;;;;8.40;2.95;;;1.30;99.90;;;;;;5091619;28;20307;-59
2023/03/28 04:46:11;;;;;;;6.03;2.30;;;1.30;99.90;;;;;;5093442;28;20196;-59
2023/03/28 04:48:37;;;;;;;6.03;1.95;;;1.30;99.90;;;;;;5094283;28;20287;-59
2023/03/28 04:51:05;;;;;;;5.13;1.92;;;1.30;99.90;;;;;;5093364;28;20220;-59
2023/03/28 04:53:32;;;;;;;10.82;3.15;;;1.30;99.90;;;;;;5094527;28;20220;-60
2023/03/28 04:55:59;;;;;;;3.67;2.05;;;1.20;99.90;;;;;;5094653;28;20201;-59
2023/03/28 04:58:26;;;;;;;4.10;1.92;;;1.20;99.90;;;;;;5093777;28;20205;-59
2023/03/28 05:00:53;;;;;;;4.90;1.90;;;1.20;99.90;;;;;;5093682;28;20268;-59
2023/03/28 05:03:23;;;;;;;11.88;3.35;;;1.20;99.90;;;;;;5091810;28;20225;-59
2023/03/28 05:05:52;;;;;;;7.50;2.15;;;1.20;99.90;;;;;;5092839;28;20201;-59
2023/03/28 05:08:22;;;;;;;5.38;1.52;;;1.30;99.90;;;;;;5085164;22;20226;-58
2023/03/28 05:10:50;;;;;;;4.90;2.42;;;1.30;99.90;;;;;;5049963;28;20696;-58
2023/03/28 05:13:17;;;;;;;7.85;2.05;;;1.30;99.90;;;;;;5051067;28;20263;-59
2023/03/28 05:15:46;;;;;;;17.90;3.28;;;1.40;99.90;;;;;;5050985;28;20202;-59
2023/03/28 05:18:13;;;;;;;6.80;1.90;;;1.40;99.90;;;;;;5050987;28;20232;-59
2023/03/28 05:20:42;;;;;;;6.35;1.90;;;1.40;99.90;;;;;;5050505;28;20280;-60
2023/03/28 05:23:09;;;;;;;8.98;2.30;;;1.40;99.90;;;;;;5037946;28;20217;-59
2023/03/28 05:25:36;;;;;;;8.13;2.30;;;1.40;99.90;;;;;;5038525;28;20230;-59
2023/03/28 05:28:03;;;;;;;8.77;4.00;;;1.40;99.90;;;;;;5039176;28;20309;-58
2023/03/28 05:30:30;;;;;;;3.90;1.90;;;1.40;99.90;;;;;;5039032;28;20560;-59
2023/03/28 05:32:57;;;;;;;7.30;2.75;;;1.40;99.90;;;;;;5038921;28;20205;-58
2023/03/28 05:35:24;;;;;;;6.07;1.80;;;1.40;99.90;;;;;;5038551;28;20219;-59
2023/03/28 05:37:52;;;;;;;10.38;2.70;;;1.40;99.90;;;;;;5039421;28;20791;-59
2023/03/28 05:40:19;;;;;;;7.63;2.30;;;1.40;99.90;;;;;;5039927;28;20230;-58
2023/03/28 05:42:45;;;;;;;10.07;1.92;;;1.40;99.90;;;;;;5037702;28;20289;-59
2023/03/28 05:45:12;;;;;;;5.35;2.05;;;1.40;99.90;;;;;;5037649;28;20676;-59
2023/03/28 05:47:39;;;;;;;6.97;2.30;;;1.50;99.90;;;;;;5038225;28;20229;-59
2023/03/28 05:50:07;;;;;;;8.80;3.33;;;1.50;99.90;;;;;;5036791;28;20232;-56
2023/03/28 05:52:34;;;;;;;7.22;2.63;;;1.50;99.90;;;;;;5037939;28;20202;-59
2023/03/28 05:55:02;;;;;;;7.18;1.90;;;1.60;99.90;;;;;;5042149;28;20272;-59
2023/03/28 05:57:29;;;;;;;4.68;1.95;;;1.60;99.90;;;;;;5042499;28;20218;-60
2023/03/28 05:59:56;;;;;;;9.88;2.58;;;1.60;99.90;;;;;;5045230;28;20249;-60
2023/03/28 06:02:24;;;;;;;5.43;2.33;;;1.70;99.90;;;;;;5039950;28;20206;-58
2023/03/28 06:04:52;;;;;;;7.82;2.95;;;1.70;99.90;;;;;;5037551;28;20201;-59
2023/03/28 06:07:20;;;;;;;10.77;2.67;;;1.70;99.90;;;;;;5036820;28;20218;-58
2023/03/28 06:09:46;;;;;;;3.97;1.95;;;1.80;99.90;;;;;;5037583;28;20631;-58
2023/03/28 06:12:15;;;;;;;10.63;2.75;;;1.80;99.90;;;;;;5038486;28;20684;-58
2023/03/28 06:14:42;;;;;;;9.82;2.08;;;1.90;99.90;;;;;;5037291;28;20293;-58
2023/03/28 06:17:08;;;;;;;3.20;2.03;;;1.90;99.90;;;;;;5035565;28;20209;-58
2023/03/28 06:19:35;;;;;;;10.65;2.55;;;2.00;99.90;;;;;;5035331;28;20680;-59
2023/03/28 06:22:02;;;;;;;5.85;2.20;;;2.10;99.90;;;;;;5035954;28;20281;-59
2023/03/28 06:24:30;;;;;;;8.88;2.58;;;2.20;99.90;;;;;;5035981;28;20289;-60
2023/03/28 06:26:58;;;;;;;7.47;2.05;;;2.20;99.90;;;;;;5037061;28;20202;-59
2023/03/28 06:29:26;;;;;;;6.85;2.58;;;2.30;99.90;;;;;;5036050;28;20210;-59
2023/03/28 06:31:53;;;;;;;7.63;2.45;;;2.30;99.90;;;;;;5036222;28;20229;-59
2023/03/28 06:34:20;;;;;;;4.22;2.25;;;2.40;99.90;;;;;;5034833;28;20216;-58
2023/03/28 06:36:46;;;;;;;2.42;1.65;;;2.40;99.90;;;;;;5036677;28;20205;-58
2023/03/28 06:39:14;;;;;;;5.03;2.20;;;2.40;99.90;;;;;;5035978;28;20230;-57
2023/03/28 06:41:40;;;;;;;6.97;1.95;;;2.50;99.90;;;;;;5035039;28;20206;-58
2023/03/28 06:44:07;;;;;;;3.35;2.00;;;2.50;99.90;;;;;;5035594;28;20298;-58
2023/03/28 06:46:36;;;;;;;4.45;2.25;;;2.60;99.90;;;;;;5035328;28;20346;-59
2023/03/28 06:49:03;;;;;;;7.63;1.92;;;2.70;99.90;;;;;;5035643;28;20234;-59
2023/03/28 06:51:29;;;;;;;5.10;2.10;;;2.80;99.90;;;;;;5035650;28;20225;-59
2023/03/28 06:53:56;;;;;;;4.88;2.33;;;2.90;99.90;;;;;;5035730;28;20214;-59
2023/03/28 06:56:23;;;;;;;4.82;1.85;;;3.10;99.90;;;;;;5036497;28;20208;-59
2023/03/28 06:58:50;;;;;;;4.13;1.88;;;3.30;99.90;;;;;;5036517;28;20218;-59
2023/03/28 07:01:17;;;;;;;6.20;2.17;;;3.60;99.90;;;;;;5037896;28;20202;-62
2023/03/28 07:03:45;;;;;;;6.18;2.15;;;3.80;99.90;;;;;;5037069;28;20731;-59
2023/03/28 07:06:12;;;;;;;8.60;2.05;;;4.00;99.90;;;;;;5037021;28;20213;-60
2023/03/28 07:08:39;;;;;;;10.70;2.58;;;4.10;99.90;;;;;;5036647;28;20269;-60
2023/03/28 07:11:06;;;;;;;7.68;2.92;;;4.20;99.90;;;;;;5036303;28;20226;-59
2023/03/28 07:13:33;;;;;;;6.60;1.85;;;4.30;99.90;;;;;;5036120;28;20208;-60
2023/03/28 07:16:02;;;;;;;13.57;2.42;;;4.30;99.90;;;;;;5035917;28;20213;-60
2023/03/28 07:18:29;;;;;;;6.32;1.90;;;4.40;99.90;;;;;;5035543;28;20226;-59
2023/03/28 07:20:57;;;;;;;9.10;2.20;;;4.40;99.90;;;;;;5035706;28;20294;-60
2023/03/28 07:23:24;;;;;;;4.20;2.35;;;4.30;99.90;;;;;;5035750;28;20664;-61
2023/03/28 07:25:51;;;;;;;8.82;2.03;;;4.30;99.90;;;;;;5036455;28;20202;-58
2023/03/28 07:28:18;;;;;;;10.00;2.40;;;4.20;99.90;;;;;;5035357;28;20227;-57
2023/03/28 07:30:45;;;;;;;6.00;2.05;;;4.20;99.90;;;;;;5036106;28;20242;-59
2023/03/28 07:33:12;;;;;;;6.13;2.17;;;4.20;99.90;;;;;;5036600;28;20244;-59
2023/03/28 07:35:41;;;;;;;4.60;2.00;;;4.10;99.90;;;;;;5035981;28;20206;-58
2023/03/28 07:38:09;;;;;;;3.58;1.60;;;4.10;99.90;;;;;;5035270;28;20349;-59
2023/03/28 07:40:36;;;;;;;5.20;2.05;;;4.20;99.90;;;;;;5034934;28;20213;-58
2023/03/28 07:43:04;;;;;;;7.68;2.30;;;4.20;99.90;;;;;;5035226;28;20676;-60
2023/03/28 07:45:31;;;;;;;4.55;1.70;;;4.20;99.90;;;;;;5034756;28;20205;-57
2023/03/28 07:47:58;;;;;;;6.68;3.03;;;4.20;99.90;;;;;;5034832;28;20230;-58
2023/03/28 07:50:24;;;;;;;3.85;2.08;;;4.30;99.90;;;;;;5034706;28;20318;-57
2023/03/28 07:52:56;;;;;;;5.88;1.95;;;4.30;99.90;;;;;;5034798;28;20242;-58
2023/03/28 07:55:25;;;;;;;14.50;2.45;;;4.30;99.90;;;;;;5035877;28;20186;-59
2023/03/28 07:57:52;;;;;;;9.65;1.67;;;4.30;99.90;;;;;;5035891;28;20249;-58
2023/03/28 08:00:22;;;;;;;6.97;2.15;;;4.40;99.90;;;;;;5034724;28;20203;-58
2023/03/28 08:02:50;;;;;;;4.50;1.70;;;4.40;99.90;;;;;;5035192;28;20202;-59
2023/03/28 08:05:17;;;;;;;8.95;2.60;;;4.50;99.90;;;;;;5035353;28;20206;-59
2023/03/28 08:07:44;;;;;;;2.92;2.00;;;4.60;99.90;;;;;;5036461;28;20575;-58
2023/03/28 08:10:12;;;;;;;9.15;3.00;;;4.60;99.90;;;;;;5035685;28;20230;-59
2023/03/28 08:12:41;;;;;;;6.43;2.40;;;4.70;99.90;;;;;;5035367;28;20205;-60
2023/03/28 08:15:09;;;;;;;3.08;1.70;;;4.80;99.90;;;;;;5036032;28;20289;-59
2023/03/28 08:17:36;;;;;;;4.10;1.83;;;4.90;99.90;;;;;;5035943;28;20275;-59
2023/03/28 08:20:05;;;;;;;16.45;2.67;;;5.00;99.90;;;;;;5035990;28;20208;-60
2023/03/28 08:22:32;;;;;;;3.90;1.88;;;5.10;99.90;;;;;;5037154;28;20199;-59
2023/03/28 08:24:58;;;;;;;8.38;2.38;;;5.20;99.90;;;;;;5036365;28;20198;-60
2023/03/28 08:27:25;;;;;;;10.98;1.98;;;5.20;99.90;;;;;;5035786;28;20618;-57
2023/03/28 08:29:53;;;;;;;9.40;2.90;;;5.30;99.90;;;;;;5036009;28;20202;-57
2023/03/28 08:32:20;;;;;;;7.18;1.70;;;5.40;99.90;;;;;;5035988;28;20222;-60
2023/03/28 08:34:47;;;;;;;10.63;2.47;;;5.40;99.20;;;;;;5037097;28;20220;-58
2023/03/28 08:37:14;;;;;;;13.45;2.60;;;5.40;98.90;;;;;;5038625;28;20321;-60
2023/03/28 08:39:41;;;;;;;8.75;2.20;;;5.50;99.20;;;;;;5037360;28;20206;-59
2023/03/28 08:42:24;;;;;;;6.10;2.30;;;5.60;99.30;;;;;;5036404;28;20261;-60
2023/03/28 08:45:07;;;;;;;9.73;2.15;;;5.70;98.50;;;;;;5035582;28;20269;-60
2023/03/28 08:47:42;;;;;;;5.47;2.45;;;5.80;98.20;;;;;;5036160;28;20226;-59
2023/03/28 08:50:15;;;;;;;5.45;2.15;;;5.90;98.20;;;;;;5039619;28;20236;-59
2023/03/28 08:52:43;;;;;;;7.82;3.10;;;6.00;98.20;;;;;;5038035;28;20206;-58
2023/03/28 08:55:24;;;;;;;8.63;3.08;;;6.30;97.30;;;;;;5034812;28;20207;-59
2023/03/28 08:57:53;;;;;;;5.90;2.17;;;6.50;96.50;;;;;;5037602;28;20230;-59
2023/03/28 09:00:26;;;;;;;6.80;2.22;;;6.70;96.20;;;;;;5038417;28;20217;-61
2023/03/28 09:02:53;;;;;;;13.07;2.25;;;6.90;95.40;;;;;;5042762;28;20249;-59
2023/03/28 09:05:29;;;;;;;7.82;2.30;;;7.00;93.20;;;;;;5046277;28;20208;-59
2023/03/28 09:08:06;;;;;;;4.95;1.95;;;7.00;92.30;;;;;;5045524;28;20230;-59
2023/03/28 09:10:39;;;;;;;3.53;2.05;;;7.00;91.40;;;;;;5046676;28;20193;-59
2023/03/28 09:13:23;;;;;;;9.30;3.22;;;6.90;91.10;;;;;;5044770;28;20182;-59
2023/03/28 09:16:10;;;;;;;8.18;2.05;;;7.00;90.50;;;;;;5044303;28;20182;-60
2023/03/28 09:18:55;;;;;;;11.73;2.75;;;7.00;89.50;;;;;;5044026;28;20226;-60
2023/03/28 09:21:31;;;;;;;5.20;1.63;;;7.00;89.40;;;;;;5046449;28;20182;-59
2023/03/28 09:24:17;;;;;;;6.28;2.17;;;7.10;89.00;;;;;;5049753;28;20198;-60
2023/03/28 09:26:47;;;;;;;4.20;1.42;;;7.20;86.50;;;;;;5048937;28;20196;-59
2023/03/28 09:29:18;;;;;;;4.50;1.85;;;7.30;85.30;;;;;;5047505;28;20249;-60
2023/03/28 09:31:48;;;;;;;4.80;2.20;;;7.30;84.10;;;;;;5042694;28;20233;-60
2023/03/28 09:34:21;;;;;;;11.45;2.25;;;7.30;81.80;;;;;;5040298;28;20214;-60
2023/03/28 09:36:52;;;;;;;13.52;2.70;;;7.30;82.10;;;;;;5037723;28;20254;-59
2023/03/28 09:39:28;;;;;;;9.07;2.17;;;7.30;80.00;;;;;;5038679;28;20183;-60
2023/03/28 09:42:00;;;;;;;7.85;2.17;;;7.30;79.40;;;;;;5041138;28;20186;-59
2023/03/28 09:44:31;;;;;;;8.05;2.00;;;7.30;80.50;;;;;;5039406;28;20200;-60
2023/03/28 09:47:01;;;;;;;7.68;1.73;;;7.40;79.60;;;;;;5039211;28;20187;-60
2023/03/28 09:49:28;;;;;;;6.35;2.20;;;7.40;79.20;;;;;;5041123;28;20198;-60
2023/03/28 09:51:56;;;;;;;11.32;2.58;;;7.40;79.30;;;;;;5041924;28;20226;-59
2023/03/28 09:54:28;;;;;;;8.00;2.30;;;7.50;79.60;;;;;;5040579;28;20583;-58
2023/03/28 09:56:59;;;;;;;6.93;2.08;;;7.60;79.80;;;;;;5041119;28;20190;-59
2023/03/28 09:59:28;;;;;;;7.93;2.92;;;7.70;79.50;;;;;;5041531;28;20571;-60
2023/03/28 10:01:56;;;;;;;9.57;2.20;;;7.80;78.30;;;;;;5039727;28;20664;-56
2023/03/28 10:04:35;;;;;;;10.38;3.38;;;7.80;77.40;;;;;;5039442;28;20198;-59
2023/03/28 10:07:27;;;;;;;10.30;2.25;;;8.00;76.70;;;;;;5038884;28;20196;-59
2023/03/28 10:09:55;;;;;;;7.13;2.63;;;8.20;75.00;;;;;;5040085;28;20198;-60
2023/03/28 10:12:26;;;;;;;5.35;2.13;;;8.30;74.50;;;;;;5040071;28;20572;-60
2023/03/28 10:14:52;;;;;;;8.02;2.53;;;8.50;73.20;;;;;;5040869;28;20301;-59
2023/03/28 10:17:26;;;;;;;5.57;2.30;;;8.50;71.40;;;;;;5040370;28;20228;-60
2023/03/28 10:20:00;;;;;;;5.93;1.77;;;8.40;70.70;;;;;;5040925;28;20197;-60
2023/03/28 10:22:30;;;;;;;6.32;2.58;;;8.20;71.20;;;;;;5041584;28;20198;-60
2023/03/28 10:24:58;;;;;;;5.85;2.17;;;8.20;71.30;;;;;;5040689;28;20190;-60
2023/03/28 10:27:27;;;;;;;8.20;1.92;;;8.10;70.80;;;;;;5040240;28;20250;-59
2023/03/28 10:29:57;;;;;;;4.78;1.95;;;8.30;70.30;;;;;;5039174;28;20208;-61
2023/03/28 10:32:26;;;;;;;6.47;2.22;;;8.40;68.90;;;;;;5037700;28;20807;-60
2023/03/28 10:35:06;;;;;;;5.13;2.40;;;8.30;68.70;;;;;;5037136;28;20224;-60
2023/03/28 10:37:35;;;;;;;4.60;2.30;;;8.30;68.50;;;;;;5038494;28;20252;-60
2023/03/28 10:40:05;;;;;;;10.60;2.60;;;8.10;67.80;;;;;;5038123;28;20205;-59
2023/03/28 10:42:44;;;;;;;9.00;2.63;;;8.10;67.90;;;;;;5038473;28;20193;-61
2023/03/28 10:45:20;;;;;;;5.72;2.00;;;8.10;67.40;;;;;;5038051;28;20202;-61
2023/03/28 10:47:48;;;;;;;6.55;2.40;;;8.20;67.20;;;;;;5036922;28;20226;-59
2023/03/28 10:50:26;;;;;;;6.80;2.88;;;8.40;66.30;;;;;;5037832;28;20233;-60
2023/03/28 10:53:02;;;;;;;7.07;2.00;;;8.80;64.70;;;;;;5037583;28;20214;-60
2023/03/28 10:55:37;;;;;;;6.13;2.30;;;8.90;62.50;;;;;;5037464;28;20182;-59
2023/03/28 10:58:12;;;;;;;8.85;2.30;;;8.90;61.10;;;;;;5037456;28;20294;-62
2023/03/28 11:00:42;;;;;;;6.75;2.30;;;8.80;61.00;;;;;;5037143;28;20197;-60
2023/03/28 11:03:26;;;;;;;7.82;2.38;;;9.00;61.00;;;;;;5037294;28;20198;-60
2023/03/28 11:05:57;;;;;;;5.30;2.22;;;9.20;60.30;;;;;;5037565;28;20191;-60
2023/03/28 11:08:40;;;;;;;6.47;2.47;;;9.60;58.90;;;;;;5072368;22;20196;-58
2023/03/28 11:11:23;;;;;;;6.33;2.27;;;9.60;57.00;;;;;;5054726;28;20200;-60
2023/03/28 11:13:57;;;;;;;16.67;2.40;;;9.50;56.60;;;;;;5055719;28;20424;-60
2023/03/28 11:16:36;;;;;;;9.23;1.98;;;9.30;57.20;;;;;;5055911;28;20189;-59
2023/03/28 11:19:12;;;;;;;5.57;1.70;;;9.10;57.50;;;;;;5055720;28;20245;-60
2023/03/28 11:21:52;;;;;;;6.68;2.38;;;9.10;57.70;;;;;;5057674;28;20193;-61
2023/03/28 11:24:32;;;;;;;10.45;2.17;;;9.10;57.20;;;;;;5055600;28;20229;-60
2023/03/28 11:27:07;;;;;;;2.90;1.33;;;9.00;56.60;;;;;;5054727;28;20194;-62
2023/03/28 11:29:41;;;;;;;4.63;1.90;;;8.90;56.50;;;;;;5054702;28;20332;-61
2023/03/28 11:32:16;;;;;;;8.07;2.53;;;9.10;56.60;;;;;;5055816;28;20290;-60
2023/03/28 11:34:47;;;;;;;6.90;2.67;;;9.30;56.50;;;;;;5056975;28;20541;-59
2023/03/28 11:37:22;;;;;;;15.82;2.45;;;9.30;54.60;;;;;;5057565;28;20533;-60
2023/03/28 11:39:56;;;;;;;7.18;1.60;;;9.10;54.60;;;;;;5057972;28;20332;-60
2023/03/28 11:42:30;;;;;;;3.78;1.50;;;9.00;55.20;;;;;;5056837;28;20190;-59
2023/03/28 11:45:05;;;;;;;5.10;1.80;;;9.00;55.10;;;;;;5055535;28;20182;-60
2023/03/28 11:47:37;;;;;;;6.55;2.35;;;9.00;55.10;;;;;;5054909;28;20273;-60
2023/03/28 11:50:10;;;;;;;5.15;1.60;;;9.20;54.60;;;;;;5055037;28;20232;-61
2023/03/28 11:52:46;;;;;;;4.50;1.70;;;9.30;54.70;;;;;;5053453;28;20679;-61
2023/03/28 11:55:19;;;;;;;3.90;1.63;;;9.60;54.30;;;;;;5053900;28;20428;-60
2023/03/28 11:57:53;;;;;;;8.32;2.20;;;9.80;53.90;;;;;;5053735;28;20245;-59
2023/03/28 12:00:27;;;;;;;2.83;1.27;;;9.90;53.50;;;;;;5057215;28;20221;-62
2023/03/28 12:03:03;;;;;;;5.68;1.30;;;9.80;51.70;;;;;;5054058;28;20428;-60
2023/03/28 12:05:33;;;;;;;1.90;0.93;;;9.50;50.00;;;;;;5054741;28;20182;-60
2023/03/28 12:08:08;;;;;;;3.30;1.80;;;9.40;49.60;;;;;;5054610;28;20531;-61
2023/03/28 12:10:37;;;;;;;4.20;1.50;;;9.50;49.60;;;;;;5054683;28;20189;-60
2023/03/28 12:13:11;;;;;;;6.93;1.50;;;9.80;49.80;;;;;;5052820;28;21040;-60
2023/03/28 12:15:43;;;;;;;6.40;1.60;;;10.00;48.30;;;;;;5054044;28;20438;-62
2023/03/28 12:18:15;;;;;;;11.53;2.30;;;10.10;48.20;;;;;;5054006;28;20432;-59
2023/03/28 12:20:50;;;;;;;5.97;1.73;;;10.10;47.90;;;;;;5057576;28;20432;-62
2023/03/28 12:23:30;;;;;;;3.13;1.40;;;9.90;48.20;;;;;;5054127;28;20451;-62
2023/03/28 12:26:03;;;;;;;3.60;1.60;;;9.80;48.10;;;;;;5053587;28;20436;-63
2023/03/28 12:28:37;;;;;;;5.70;2.33;;;9.70;48.10;;;;;;5053180;28;20539;-62
2023/03/28 12:31:10;;;;;;;3.20;1.40;;;9.60;48.50;;;;;;5053338;28;20429;-61
2023/03/28 12:33:47;;;;;;;6.50;1.60;;;9.60;48.40;;;;;;5057316;28;20468;-63
2023/03/28 12:36:19;;;;;;;3.97;1.60;;;9.50;48.00;;;;;;5056487;28;20804;-59
2023/03/28 12:38:53;;;;;;;4.17;1.40;;;9.40;47.80;;;;;;5056898;28;20470;-63
2023/03/28 12:41:24;;;;;;;3.50;1.90;;;9.50;47.30;;;;;;5057227;28;20573;-62
2023/03/28 12:43:54;;;;;;;3.23;1.33;;;9.60;47.00;;;;;;5058045;28;20451;-62
2023/03/28 12:46:26;;;;;;;5.73;1.63;;;9.70;47.20;;;;;;5057650;28;20425;-62
2023/03/28 12:48:58;;;;;;;4.30;2.20;;;9.70;47.30;;;;;;5057657;28;20468;-63
2023/03/28 12:51:30;;;;;;;6.63;2.00;;;9.70;47.10;;;;;;5057413;28;20217;-62
2023/03/28 12:54:07;;;;;;;4.93;1.70;;;9.70;46.80;;;;;;5057220;28;20468;-62
2023/03/28 12:56:35;;;;;;;2.20;1.47;;;9.60;47.00;;;;;;5057255;28;20432;-62
2023/03/28 12:59:35;;;;;;;3.20;1.60;;;9.60;47.30;;;;;;5056841;28;20853;-61
2023/03/28 13:02:10;;;;;;;2.63;1.90;;;9.60;47.10;;;;;;5057619;28;20867;-61
2023/03/28 13:04:46;;;;;;;3.20;1.90;;;9.60;46.70;;;;;;5056900;28;20428;-61
2023/03/28 13:07:21;;;;;;;3.47;1.53;;;9.80;47.00;;;;;;5056493;28;20432;-62
2023/03/28 13:09:59;;;;;;;3.37;1.87;;;10.10;46.00;;;;;;5056375;28;20471;-61
2023/03/28 13:12:48;;;;;;;4.43;2.00;;;10.50;45.50;;;;;;5056310;28;20468;-62
2023/03/28 13:15:28;;;;;;;3.37;1.70;;;10.60;45.00;;;;;;5056671;28;20440;-63
2023/03/28 13:18:28;;;;;;;4.00;1.63;;;10.50;43.90;;;;;;5056624;28;20486;-62
2023/03/28 13:20:56;;;;;;;3.23;1.60;;;10.30;43.90;;;;;;5056376;28;20447;-62